createdAt,value
2023-05-14T00:02:26.789Z,50.33
2023-05-14T00:04:54.619Z,50.37
2023-05-14T00:07:22.426Z,50.40
2023-05-14T00:09:50.228Z,50.21
2023-05-14T00:12:18.039Z,50.46
2023-05-14T00:14:45.816Z,50.54
2023-05-14T00:17:13.560Z,50.85
2023-05-14T00:19:42.022Z,50.77
2023-05-14T00:22:09.988Z,50.94
2023-05-14T00:24:38.184Z,50.92
2023-05-14T00:27:07.275Z,51.03
2023-05-14T00:29:35.033Z,51.07
2023-05-14T00:32:04.220Z,50.92
2023-05-14T00:34:32.190Z,50.87
2023-05-14T00:37:00.098Z,50.99
2023-05-14T00:39:28.026Z,50.79
2023-05-14T00:41:55.866Z,50.86
2023-05-14T00:44:23.773Z,51.02
2023-05-14T00:46:52.538Z,50.91
2023-05-14T00:49:21.148Z,50.82
2023-05-14T00:51:49.005Z,50.87
2023-05-14T00:54:17.460Z,50.56
2023-05-14T00:56:46.890Z,50.72
2023-05-14T00:59:14.810Z,50.61
2023-05-14T01:01:43.163Z,50.62
2023-05-14T01:04:11.819Z,50.66
2023-05-14T01:06:59.092Z,50.61
2023-05-14T01:09:50.508Z,50.68
2023-05-14T01:12:37.850Z,50.62
2023-05-14T01:15:19.580Z,50.52
2023-05-14T01:17:53.740Z,50.83
2023-05-14T01:20:23.321Z,50.63
2023-05-14T01:22:51.260Z,50.69
2023-05-14T01:25:19.203Z,50.60
2023-05-14T01:28:21.064Z,50.35
2023-05-14T01:31:04.118Z,50.34
2023-05-14T01:33:35.374Z,50.37
2023-05-14T01:36:03.714Z,50.57
2023-05-14T01:38:34.256Z,50.38
2023-05-14T01:41:03.289Z,50.56
2023-05-14T01:43:31.833Z,50.25
2023-05-14T01:45:59.675Z,50.37
2023-05-14T01:48:29.912Z,50.33
2023-05-14T01:50:57.887Z,50.31
2023-05-14T01:53:26.149Z,50.29
2023-05-14T01:55:53.937Z,50.37
2023-05-14T01:58:21.817Z,50.50
2023-05-14T02:00:49.590Z,50.27
2023-05-14T02:03:17.327Z,50.48
2023-05-14T02:05:45.483Z,50.33
2023-05-14T02:08:13.209Z,50.46
2023-05-14T02:10:41.173Z,50.56
2023-05-14T02:13:09.737Z,50.37
2023-05-14T02:15:38.347Z,50.28
2023-05-14T02:18:06.373Z,50.30
2023-05-14T02:20:34.348Z,50.39
2023-05-14T02:23:02.198Z,50.23
2023-05-14T02:25:30.125Z,50.16
2023-05-14T02:27:57.972Z,50.15
2023-05-14T02:30:26.018Z,50.18
2023-05-14T02:32:54.231Z,50.06
2023-05-14T02:35:22.860Z,49.96
2023-05-14T02:37:50.677Z,49.88
2023-05-14T02:40:18.549Z,49.74
2023-05-14T02:42:46.372Z,49.59
2023-05-14T02:45:14.215Z,49.65
2023-05-14T02:47:42.332Z,49.44
2023-05-14T02:50:11.231Z,49.36
2023-05-14T02:52:39.097Z,49.58
2023-05-14T02:55:07.441Z,49.58
2023-05-14T02:57:35.252Z,49.62
2023-05-14T03:00:03.361Z,49.49
2023-05-14T03:02:31.965Z,49.54
2023-05-14T03:05:00.376Z,49.43
2023-05-14T03:07:28.147Z,49.47
2023-05-14T03:09:56.417Z,49.41
2023-05-14T03:12:24.181Z,49.50
2023-05-14T03:14:51.960Z,49.45
2023-05-14T03:17:19.694Z,49.48
2023-05-14T03:19:47.548Z,49.45
2023-05-14T03:22:15.762Z,49.41
2023-05-14T03:24:43.526Z,49.51
2023-05-14T03:27:11.564Z,49.51
2023-05-14T03:29:39.303Z,49.42
2023-05-14T03:32:07.501Z,49.49
2023-05-14T03:34:35.390Z,49.61
2023-05-14T03:37:03.387Z,49.68
2023-05-14T03:39:31.423Z,49.82
2023-05-14T03:41:59.452Z,49.93
2023-05-14T03:44:27.646Z,50.09
2023-05-14T03:46:55.867Z,50.20
2023-05-14T03:49:23.749Z,50.18
2023-05-14T03:51:51.740Z,50.24
2023-05-14T03:54:19.515Z,50.24
2023-05-14T03:56:47.610Z,50.35
2023-05-14T03:59:15.482Z,50.39
2023-05-14T04:01:44.282Z,50.37
2023-05-14T04:04:12.224Z,50.42
2023-05-14T04:06:40.342Z,50.34
2023-05-14T04:09:08.148Z,50.39
2023-05-14T04:11:36.205Z,50.36
2023-05-14T04:14:04.281Z,50.33
2023-05-14T04:16:32.684Z,50.37
2023-05-14T04:19:04.720Z,50.33
2023-05-14T04:21:32.661Z,50.46
2023-05-14T04:24:00.510Z,50.53
2023-05-14T04:26:28.508Z,50.57
2023-05-14T04:28:56.338Z,50.54
2023-05-14T04:31:24.284Z,50.49
2023-05-14T04:33:52.059Z,50.56
2023-05-14T04:36:19.888Z,50.60
2023-05-14T04:38:47.724Z,50.52
2023-05-14T04:41:15.502Z,50.69
2023-05-14T04:43:43.240Z,50.92
2023-05-14T04:46:11.564Z,51.07
2023-05-14T04:48:39.650Z,51.16
2023-05-14T04:51:07.449Z,51.31
2023-05-14T04:53:35.216Z,51.40
2023-05-14T04:56:03.208Z,51.46
2023-05-14T04:58:34.585Z,51.62
2023-05-14T05:01:05.862Z,51.75
2023-05-14T05:03:33.787Z,51.95
2023-05-14T05:06:01.949Z,52.05
2023-05-14T05:08:29.653Z,52.31
2023-05-14T05:10:57.403Z,52.41
2023-05-14T05:13:25.185Z,52.52
2023-05-14T05:15:53.022Z,52.74
2023-05-14T05:18:20.794Z,52.91
2023-05-14T05:20:48.637Z,52.98
2023-05-14T05:23:16.443Z,53.15
2023-05-14T05:25:44.525Z,53.07
2023-05-14T05:28:12.392Z,52.99
2023-05-14T05:30:40.518Z,52.96
2023-05-14T05:33:08.522Z,53.03
2023-05-14T05:35:36.322Z,52.94
2023-05-14T05:38:07.285Z,52.74
2023-05-14T05:40:36.380Z,52.50
2023-05-14T05:43:04.076Z,52.23
2023-05-14T05:45:31.887Z,52.19
2023-05-14T05:47:59.786Z,52.10
2023-05-14T05:50:27.627Z,51.94
2023-05-14T05:52:55.367Z,51.72
2023-05-14T05:55:23.185Z,51.60
2023-05-14T05:57:51.354Z,51.50
2023-05-14T06:00:22.237Z,51.33
2023-05-14T06:02:50.525Z,51.30
2023-05-14T06:05:19.372Z,51.16
2023-05-14T06:07:47.341Z,51.06
2023-05-14T06:10:15.278Z,50.79
2023-05-14T06:12:43.011Z,50.73
2023-05-14T06:15:12.205Z,50.33
2023-05-14T06:17:40.164Z,50.68
2023-05-14T06:20:09.028Z,50.93
2023-05-14T06:22:36.806Z,51.37
2023-05-14T06:25:05.790Z,51.31
2023-05-14T06:27:33.834Z,51.35
2023-05-14T06:30:01.544Z,51.24
2023-05-14T06:32:29.297Z,50.87
2023-05-14T06:34:57.218Z,50.99
2023-05-14T06:37:25.113Z,50.69
2023-05-14T06:39:52.931Z,50.65
2023-05-14T06:42:20.665Z,50.55
2023-05-14T06:44:48.805Z,50.49
2023-05-14T06:47:16.752Z,50.15
2023-05-14T06:49:44.818Z,50.09
2023-05-14T06:52:12.905Z,49.76
2023-05-14T06:54:40.790Z,49.77
2023-05-14T06:57:08.619Z,49.62
2023-05-14T06:59:36.456Z,49.67
2023-05-14T07:02:06.976Z,49.58
2023-05-14T07:04:36.542Z,49.30
2023-05-14T07:07:05.700Z,49.20
2023-05-14T07:09:35.517Z,48.91
2023-05-14T07:12:03.628Z,48.63
2023-05-14T07:14:31.319Z,48.57
2023-05-14T07:16:59.106Z,48.11
2023-05-14T07:19:28.730Z,47.84
2023-05-14T07:21:57.953Z,47.30
2023-05-14T07:24:25.718Z,47.55
2023-05-14T07:26:54.542Z,47.47
2023-05-14T07:29:22.482Z,47.12
2023-05-14T07:31:52.483Z,47.28
2023-05-14T07:34:20.362Z,47.10
2023-05-14T07:36:49.299Z,46.98
2023-05-14T07:39:17.184Z,46.75
2023-05-14T07:41:44.892Z,46.04
2023-05-14T07:44:14.741Z,45.68
2023-05-14T07:46:44.429Z,46.40
2023-05-14T07:49:12.110Z,45.71
2023-05-14T07:51:40.104Z,45.20
2023-05-14T07:54:08.389Z,45.09
2023-05-14T07:56:36.270Z,44.78
2023-05-14T07:59:04.118Z,44.52
2023-05-14T08:01:31.989Z,44.59
2023-05-14T08:04:00.120Z,44.42
2023-05-14T08:06:29.591Z,44.31
2023-05-14T08:08:57.336Z,44.12
2023-05-14T08:11:26.102Z,44.01
2023-05-14T08:13:53.864Z,43.89
2023-05-14T08:16:21.932Z,43.92
2023-05-14T08:18:49.892Z,43.88
2023-05-14T08:21:17.910Z,43.81
2023-05-14T08:23:45.707Z,43.64
2023-05-14T08:26:13.512Z,43.45
2023-05-14T08:28:41.242Z,43.29
2023-05-14T08:31:09.103Z,43.17
2023-05-14T08:33:36.857Z,43.10
2023-05-14T08:36:05.058Z,42.95
2023-05-14T08:38:33.162Z,43.00
2023-05-14T08:41:01.249Z,42.50
2023-05-14T08:44:04.081Z,42.13
2023-05-14T08:46:32.437Z,42.37
2023-05-14T08:49:42.760Z,42.19
2023-05-14T08:52:11.400Z,42.57
2023-05-14T08:54:40.653Z,42.97
2023-05-14T08:57:12.578Z,42.99
2023-05-14T08:59:41.179Z,42.88
2023-05-14T09:02:12.780Z,42.55
2023-05-14T09:04:41.071Z,42.97
2023-05-14T09:07:09.096Z,42.34
2023-05-14T09:09:37.886Z,42.47
2023-05-14T09:12:07.275Z,41.85
2023-05-14T09:14:34.973Z,42.07
2023-05-14T09:17:03.848Z,41.80
2023-05-14T09:19:33.543Z,41.98
2023-05-14T09:22:01.338Z,41.84
2023-05-14T09:24:29.509Z,41.88
2023-05-14T09:26:58.504Z,41.51
2023-05-14T09:29:30.252Z,41.11
2023-05-14T09:32:02.208Z,40.75
2023-05-14T09:34:32.426Z,40.91
2023-05-14T09:37:05.838Z,40.68
2023-05-14T09:39:38.860Z,40.45
2023-05-14T09:42:07.038Z,40.40
2023-05-14T09:44:36.353Z,40.18
2023-05-14T09:47:04.589Z,40.09
2023-05-14T09:49:32.292Z,39.61
2023-05-14T09:52:04.790Z,39.56
2023-05-14T09:54:34.574Z,39.33
2023-05-14T09:57:02.437Z,39.46
2023-05-14T09:59:30.141Z,39.07
2023-05-14T10:01:58.627Z,39.20
2023-05-14T10:04:26.521Z,38.99
2023-05-14T10:06:56.110Z,38.97
2023-05-14T10:09:27.957Z,38.56
2023-05-14T10:12:01.243Z,38.49
2023-05-14T10:14:43.137Z,38.36
2023-05-14T10:17:18.609Z,38.24
2023-05-14T10:19:56.238Z,38.07
2023-05-14T10:22:26.941Z,38.27
2023-05-14T10:24:55.708Z,38.36
2023-05-14T10:27:23.866Z,38.13
2023-05-14T10:29:57.249Z,38.13
2023-05-14T10:32:26.515Z,38.18
2023-05-14T10:34:54.547Z,38.17
2023-05-14T10:37:27.750Z,38.18
2023-05-14T10:40:08.212Z,38.47
2023-05-14T10:42:43.333Z,38.37
2023-05-14T10:45:14.238Z,38.42
2023-05-14T10:47:48.935Z,38.24
2023-05-14T10:50:17.448Z,38.63
2023-05-14T10:52:46.649Z,38.46
2023-05-14T10:55:17.030Z,38.20
2023-05-14T10:57:46.606Z,38.14
2023-05-14T11:00:16.173Z,37.88
2023-05-14T11:02:45.217Z,37.76
2023-05-14T11:05:17.901Z,38.05
2023-05-14T11:07:48.868Z,37.89
2023-05-14T11:10:25.965Z,37.82
2023-05-14T11:12:54.021Z,37.65
2023-05-14T11:15:23.900Z,37.25
2023-05-14T11:17:53.617Z,37.29
2023-05-14T11:20:22.113Z,37.32
2023-05-14T11:22:52.006Z,37.30
2023-05-14T11:25:20.508Z,37.41
2023-05-14T11:27:49.911Z,37.14
2023-05-14T11:30:23.040Z,37.03
2023-05-14T11:32:54.320Z,36.91
2023-05-14T11:35:22.780Z,36.96
2023-05-14T11:37:54.700Z,37.23
2023-05-14T11:40:22.681Z,37.04
2023-05-14T11:42:52.959Z,36.71
2023-05-14T11:45:29.834Z,36.66
2023-05-14T11:47:57.726Z,37.05
2023-05-14T11:50:26.369Z,36.81
2023-05-14T11:52:57.519Z,36.65
2023-05-14T11:55:27.156Z,36.40
2023-05-14T11:57:54.914Z,36.64
2023-05-14T12:00:24.567Z,36.46
2023-05-14T12:02:52.872Z,36.46
2023-05-14T12:05:21.805Z,36.54
2023-05-14T12:07:49.548Z,36.54
2023-05-14T12:10:17.415Z,36.17
2023-05-14T12:12:48.810Z,36.27
2023-05-14T12:15:17.264Z,36.24
2023-05-14T12:17:51.983Z,36.00
2023-05-14T12:20:20.257Z,36.23
2023-05-14T12:22:47.986Z,35.91
2023-05-14T12:25:15.982Z,36.02
2023-05-14T12:27:45.770Z,35.82
2023-05-14T12:32:45.909Z,36.34
2023-05-14T12:35:13.633Z,36.23
2023-05-14T12:37:42.622Z,36.02
2023-05-14T12:40:12.634Z,36.17
2023-05-14T12:42:40.398Z,36.39
2023-05-14T12:45:09.931Z,36.26
2023-05-14T12:47:39.279Z,36.27
2023-05-14T12:50:07.802Z,36.38
2023-05-14T12:52:39.198Z,35.79
2023-05-14T12:55:09.509Z,35.89
2023-05-14T12:57:39.484Z,35.46
2023-05-14T13:00:21.228Z,35.50
2023-05-14T13:02:48.996Z,35.75
2023-05-14T13:05:16.899Z,35.60
2023-05-14T13:07:44.686Z,35.67
2023-05-14T13:10:12.665Z,35.24
2023-05-14T13:12:40.756Z,35.40
2023-05-14T13:15:09.410Z,35.53
2023-05-14T13:17:37.207Z,35.56
2023-05-14T13:20:08.287Z,35.46
2023-05-14T13:22:36.166Z,35.52
2023-05-14T13:25:04.884Z,35.88
2023-05-14T13:27:33.774Z,35.57
2023-05-14T13:30:01.536Z,35.37
2023-05-14T13:32:29.297Z,35.52
2023-05-14T13:34:57.022Z,35.07
2023-05-14T13:37:25.800Z,35.15
2023-05-14T13:39:53.631Z,35.18
2023-05-14T13:42:21.367Z,35.24
2023-05-14T13:44:49.636Z,35.40
2023-05-14T13:47:17.494Z,35.26
2023-05-14T13:49:45.375Z,35.16
2023-05-14T13:52:13.149Z,35.30
2023-05-14T13:54:40.920Z,35.31
2023-05-14T13:57:08.669Z,35.06
2023-05-14T13:59:36.920Z,34.97
2023-05-14T14:02:05.851Z,35.25
2023-05-14T14:04:33.756Z,35.13
2023-05-14T14:07:01.479Z,35.31
2023-05-14T14:09:29.377Z,35.39
2023-05-14T14:11:57.439Z,35.60
2023-05-14T14:14:25.254Z,35.24
2023-05-14T14:16:53.977Z,35.41
2023-05-14T14:19:21.761Z,35.17
2023-05-14T14:24:22.256Z,35.35
2023-05-14T14:26:49.933Z,35.38
2023-05-14T14:29:17.688Z,35.31
2023-05-14T14:31:45.469Z,35.10
2023-05-14T14:34:13.239Z,34.76
2023-05-14T14:36:40.912Z,35.12
2023-05-14T14:39:08.646Z,34.97
2023-05-14T14:41:36.536Z,35.19
2023-05-14T14:44:04.436Z,35.20
2023-05-14T14:46:33.459Z,35.25
2023-05-14T14:49:01.309Z,35.07
2023-05-14T14:51:30.123Z,34.80
2023-05-14T14:53:57.915Z,35.15
2023-05-14T14:56:27.512Z,34.60
2023-05-14T14:58:59.155Z,35.09
2023-05-14T15:01:26.970Z,34.98
2023-05-14T15:03:55.019Z,34.99
2023-05-14T15:06:22.780Z,34.86
2023-05-14T15:08:50.660Z,34.74
2023-05-14T15:11:18.704Z,34.74
2023-05-14T15:13:46.877Z,35.21
2023-05-14T15:16:15.560Z,34.95
2023-05-14T15:18:43.347Z,34.92
2023-05-14T15:21:11.252Z,35.29
2023-05-14T15:23:39.035Z,35.03
2023-05-14T15:26:06.770Z,35.29
2023-05-14T15:28:34.566Z,34.86
2023-05-14T15:31:02.613Z,34.92
2023-05-14T15:33:30.591Z,35.25
2023-05-14T15:35:58.471Z,35.08
2023-05-14T15:38:26.383Z,35.22
2023-05-14T15:40:54.041Z,34.80
2023-05-14T15:43:21.886Z,35.05
2023-05-14T15:45:50.427Z,34.68
2023-05-14T15:48:18.183Z,34.88
2023-05-14T15:50:49.753Z,34.59
2023-05-14T15:53:17.938Z,34.78
2023-05-14T15:55:47.776Z,34.53
2023-05-14T15:58:15.538Z,34.61
2023-05-14T16:00:43.261Z,34.87
2023-05-14T16:03:12.337Z,35.00
2023-05-14T16:05:40.247Z,35.06
2023-05-14T16:08:08.125Z,34.83
2023-05-14T16:10:35.899Z,35.20
2023-05-14T16:13:03.737Z,34.98
2023-05-14T16:15:31.506Z,35.31
2023-05-14T16:18:01.550Z,35.33
2023-05-14T16:20:29.245Z,35.69
2023-05-14T16:22:56.948Z,35.75
2023-05-14T16:25:25.969Z,35.67
2023-05-14T16:27:54.328Z,35.76
2023-05-14T16:30:22.259Z,35.69
2023-05-14T16:32:50.280Z,35.80
2023-05-14T16:35:18.122Z,35.65
2023-05-14T16:37:45.936Z,35.44
2023-05-14T16:40:16.039Z,35.52
2023-05-14T16:42:47.777Z,35.52
2023-05-14T16:45:16.960Z,35.56
2023-05-14T16:47:47.447Z,35.11
2023-05-14T16:50:15.387Z,35.18
2023-05-14T16:52:43.164Z,35.79
2023-05-14T16:55:11.026Z,35.76
2023-05-14T16:57:38.883Z,35.72
2023-05-14T17:00:07.728Z,35.87
2023-05-14T17:02:35.422Z,35.75
2023-05-14T17:05:04.054Z,35.82
2023-05-14T17:07:31.989Z,35.51
2023-05-14T17:10:00.673Z,35.66
2023-05-14T17:12:28.445Z,35.60
2023-05-14T17:14:56.157Z,35.27
2023-05-14T17:17:24.883Z,35.47
2023-05-14T17:19:52.591Z,35.27
2023-05-14T17:22:20.306Z,35.22
2023-05-14T17:24:48.570Z,35.23
2023-05-14T17:27:16.834Z,35.33
2023-05-14T17:29:44.788Z,35.02
2023-05-14T17:32:13.046Z,34.94
2023-05-14T17:34:41.148Z,35.03
2023-05-14T17:37:09.280Z,35.05
2023-05-14T17:39:37.100Z,34.89
2023-05-14T17:42:06.359Z,34.82
2023-05-14T17:44:34.194Z,34.37
2023-05-14T17:47:03.093Z,34.43
2023-05-14T17:49:31.202Z,34.25
2023-05-14T17:52:01.422Z,34.62
2023-05-14T17:54:31.265Z,34.42
2023-05-14T17:56:59.031Z,34.51
2023-05-14T17:59:26.909Z,34.17
2023-05-14T18:01:54.630Z,34.44
2023-05-14T18:04:22.320Z,34.10
2023-05-14T18:06:50.357Z,34.23
2023-05-14T18:09:18.078Z,34.03
2023-05-14T18:11:45.910Z,34.11
2023-05-14T18:14:13.657Z,34.35
2023-05-14T18:16:41.592Z,34.09
2023-05-14T18:19:09.449Z,33.94
2023-05-14T18:21:37.245Z,33.96
2023-05-14T18:24:09.804Z,33.89
2023-05-14T18:26:37.566Z,34.12
2023-05-14T18:29:05.398Z,34.16
2023-05-14T18:31:35.045Z,34.55
2023-05-14T18:34:03.113Z,34.14
2023-05-14T18:36:30.952Z,34.30
2023-05-14T18:39:02.554Z,34.59
2023-05-14T18:41:30.342Z,34.45
2023-05-14T18:43:58.075Z,34.36
2023-05-14T18:46:25.941Z,34.69
2023-05-14T18:48:54.622Z,34.44
2023-05-14T18:51:22.434Z,34.66
2023-05-14T18:53:50.228Z,35.01
2023-05-14T18:56:17.988Z,35.00
2023-05-14T18:58:45.663Z,35.46
2023-05-14T19:01:15.121Z,36.06
2023-05-14T19:03:43.006Z,36.10
2023-05-14T19:06:10.950Z,36.25
2023-05-14T19:08:38.745Z,36.27
2023-05-14T19:11:06.504Z,36.70
2023-05-14T19:13:34.244Z,37.22
2023-05-14T19:16:02.252Z,37.42
2023-05-14T19:18:32.164Z,37.52
2023-05-14T19:20:59.987Z,37.66
2023-05-14T19:23:27.752Z,37.60
2023-05-14T19:25:55.868Z,37.87
2023-05-14T19:28:23.611Z,37.82
2023-05-14T19:30:52.278Z,38.24
2023-05-14T19:33:20.117Z,38.54
2023-05-14T19:35:49.052Z,38.77
2023-05-14T19:38:17.206Z,39.07
2023-05-14T19:40:45.209Z,39.42
2023-05-14T19:43:13.091Z,39.58
2023-05-14T19:45:42.633Z,39.69
2023-05-14T19:48:12.429Z,40.11
2023-05-14T19:50:41.466Z,40.32
2023-05-14T19:53:11.317Z,40.26
2023-05-14T19:55:39.145Z,40.45
2023-05-14T19:58:08.656Z,40.65
2023-05-14T20:00:37.079Z,40.88
2023-05-14T20:03:05.852Z,41.14
2023-05-14T20:05:37.027Z,41.19
2023-05-14T20:08:08.037Z,41.64
2023-05-14T20:10:35.901Z,41.83
2023-05-14T20:13:04.125Z,42.01
2023-05-14T20:15:31.938Z,42.17
2023-05-14T20:18:01.014Z,42.14
2023-05-14T20:20:33.034Z,42.30
2023-05-14T20:23:01.436Z,42.56
2023-05-14T20:25:29.525Z,42.68
2023-05-14T20:27:57.466Z,42.57
2023-05-14T20:30:25.435Z,42.84
2023-05-14T20:32:53.351Z,42.84
2023-05-14T20:35:21.117Z,42.93
2023-05-14T20:37:49.498Z,42.99
2023-05-14T20:40:17.443Z,43.01
2023-05-14T20:42:45.932Z,43.26
2023-05-14T20:45:13.689Z,43.12
2023-05-14T20:47:41.451Z,43.01
2023-05-14T20:50:09.587Z,43.18
2023-05-14T20:52:37.284Z,43.24
2023-05-14T20:55:07.479Z,43.18
2023-05-14T20:57:35.550Z,43.39
2023-05-14T21:00:08.103Z,43.61
2023-05-14T21:02:36.375Z,43.72
2023-05-14T21:05:04.758Z,43.81
2023-05-14T21:07:32.551Z,44.06
2023-05-14T21:10:01.050Z,44.12
2023-05-14T21:12:28.747Z,44.26
2023-05-14T21:14:56.440Z,44.52
2023-05-14T21:17:24.211Z,44.42
2023-05-14T21:19:51.949Z,44.29
2023-05-14T21:22:19.686Z,44.55
2023-05-14T21:24:47.468Z,44.45
2023-05-14T21:27:15.305Z,44.50
2023-05-14T21:29:44.843Z,44.57
2023-05-14T21:32:12.756Z,44.77
2023-05-14T21:34:40.543Z,45.00
2023-05-14T21:37:08.353Z,45.22
2023-05-14T21:39:36.042Z,45.38
2023-05-14T21:42:04.126Z,45.69
2023-05-14T21:44:31.794Z,45.69
2023-05-14T21:46:59.707Z,45.78
2023-05-14T21:49:27.385Z,45.52
2023-05-14T21:51:55.193Z,45.70
2023-05-14T21:54:22.899Z,45.80
2023-05-14T21:56:50.951Z,46.07
2023-05-14T21:59:18.772Z,46.14
2023-05-14T22:02:05.333Z,46.20
2023-05-14T22:04:35.278Z,46.19
2023-05-14T22:07:03.599Z,46.20
2023-05-14T22:09:31.464Z,46.25
2023-05-14T22:11:59.702Z,46.74
2023-05-14T22:14:27.522Z,46.61
2023-05-14T22:16:55.542Z,46.64
2023-05-14T22:19:23.447Z,46.87
2023-05-14T22:21:51.204Z,46.80
2023-05-14T22:24:18.962Z,47.02
2023-05-14T22:26:46.717Z,47.14
2023-05-14T22:29:14.508Z,47.04
2023-05-14T22:31:42.309Z,46.81
2023-05-14T22:34:10.475Z,47.10
2023-05-14T22:36:38.222Z,47.26
2023-05-14T22:39:06.104Z,47.35
2023-05-14T22:41:33.889Z,47.22
2023-05-14T22:44:01.715Z,47.30
2023-05-14T22:46:29.896Z,47.48
2023-05-14T22:48:57.777Z,47.51
2023-05-14T22:51:25.472Z,47.40
2023-05-14T22:53:54.041Z,47.65
2023-05-14T22:56:22.143Z,47.75
2023-05-14T22:58:49.840Z,47.63
2023-05-14T23:01:17.568Z,47.86
2023-05-14T23:03:45.290Z,47.72
2023-05-14T23:06:14.732Z,47.99
2023-05-14T23:08:42.499Z,48.24
2023-05-14T23:11:10.300Z,48.15
2023-05-14T23:13:38.331Z,48.01
2023-05-14T23:16:06.192Z,47.88
2023-05-14T23:18:34.157Z,47.92
2023-05-14T23:21:02.091Z,48.15
2023-05-14T23:23:29.790Z,47.99
2023-05-14T23:25:57.647Z,48.14
2023-05-14T23:28:25.327Z,47.82
2023-05-14T23:30:53.044Z,48.02
2023-05-14T23:33:20.756Z,47.96
2023-05-14T23:35:49.024Z,48.07
2023-05-14T23:38:17.126Z,48.05
2023-05-14T23:40:44.867Z,48.03
2023-05-14T23:43:12.669Z,47.98
2023-05-14T23:45:40.679Z,48.19
2023-05-14T23:48:08.572Z,48.10
2023-05-14T23:50:36.975Z,48.47
2023-05-14T23:53:04.968Z,48.34
2023-05-14T23:55:32.804Z,48.52
2023-05-14T23:58:00.643Z,48.53
